Time;durP1;ratioP1;P1;durP2;ratioP2;P2;SDS_P1;SDS_P2;PMS_P1;PMS_P2;Temp;Humidity;BMP_temperature;BMP_pressure;BME280_temperature;BME280_humidity;BME280_pressure;Samples;Min_cycle;Max_cycle;Signal;HPM_P1;HPM_P2
2022/11/06 00:01:39;;;;;;;101.05;92.20;;;;;;;8.90;97.14;100515.41;1726216;82;25378;-50
2022/11/06 00:04:05;;;;;;;98.50;90.30;;;;;;;8.89;97.19;100515.97;1744766;82;27729;-48
2022/11/06 00:06:48;;;;;;;98.37;89.62;;;;;;;8.90;97.43;100510.81;1744975;82;26173;-49
2022/11/06 00:09:18;;;;;;;100.65;90.65;;;;;;;8.89;97.40;100501.13;1725583;83;27119;-49
2022/11/06 00:11:45;;;;;;;98.95;90.17;;;;;;;8.89;97.30;100513.27;1739151;82;26169;-49
2022/11/06 00:14:12;;;;;;;98.45;89.77;;;;;;;8.89;97.28;100503.83;1726261;83;25425;-50
2022/11/06 00:16:39;;;;;;;97.92;89.37;;;;;;;8.89;97.35;100509.22;1745618;82;25581;-51
2022/11/06 00:19:07;;;;;;;100.55;91.28;;;;;;;8.89;97.29;100509.78;1745710;82;25438;-49
2022/11/06 00:21:35;;;;;;;99.30;90.77;;;;;;;8.89;97.12;100527.31;1745615;81;28114;-50
2022/11/06 00:24:05;;;;;;;101.47;92.47;;;;;;;8.87;97.14;100535.70;1745488;82;25848;-48
2022/11/06 00:26:33;;;;;;;98.67;89.50;;;;;;;8.86;97.18;100534.08;1745657;82;25386;-48
2022/11/06 00:29:00;;;;;;;98.55;89.37;;;;;;;8.85;97.26;100537.06;1745586;81;25580;-49
2022/11/06 00:31:37;;;;;;;96.47;87.95;;;;;;;8.84;97.18;100547.62;1745733;82;25563;-50
2022/11/06 00:34:08;;;;;;;96.80;88.58;;;;;;;8.84;97.33;100540.32;1745664;82;27220;-48
2022/11/06 00:36:35;;;;;;;101.18;91.60;;;;;;;8.83;97.35;100544.09;1745564;81;25468;-48
2022/11/06 00:39:02;;;;;;;100.45;91.37;;;;;;;8.81;97.15;100542.24;1726150;83;25437;-48
2022/11/06 00:41:29;;;;;;;77.60;68.30;;;;;;;8.79;97.15;100545.78;1745630;81;25646;-49
2022/11/06 00:43:59;;;;;;;50.45;27.85;;;;;;;8.82;97.03;100548.43;1745665;81;25603;-48
2022/11/06 00:46:26;;;;;;;51.15;26.65;;;;;;;8.79;96.99;100549.27;1745640;81;27541;-49
2022/11/06 00:48:54;;;;;;;60.23;27.93;;;;;;;8.78;97.01;100552.27;1745496;82;25618;-48
2022/11/06 00:51:28;;;;;;;103.47;94.15;;;;;;;8.73;96.97;100545.59;1745568;82;25666;-48
2022/11/06 00:53:58;;;;;;;101.33;91.45;;;;;;;8.68;96.89;100547.00;1745566;82;25505;-48
2022/11/06 00:56:25;;;;;;;100.85;91.30;;;;;;;8.65;96.79;100546.23;1726365;83;25485;-50
2022/11/06 00:58:53;;;;;;;100.05;91.22;;;;;;;8.62;97.02;100554.36;1745603;81;27459;-48
2022/11/06 01:01:27;;;;;;;100.67;91.05;;;;;;;8.62;97.09;100553.02;1745511;82;25920;-48
2022/11/06 01:04:00;;;;;;;100.95;91.72;;;;;;;8.62;96.90;100549.52;1744675;82;25538;-49
2022/11/06 01:06:32;;;;;;;103.32;93.92;;;;;;;8.62;97.03;100557.06;1745552;82;25629;-47
2022/11/06 01:08:58;;;;;;;99.62;90.57;;;;;;;8.59;97.07;100548.19;1745760;82;25658;-47
2022/11/06 01:11:32;;;;;;;100.72;91.47;;;;;;;8.60;97.07;100556.00;1745576;82;27505;-47
2022/11/06 01:14:00;;;;;;;101.42;92.25;;;;;;;8.60;97.08;100557.34;1745547;81;25638;-48
2022/11/06 01:16:27;;;;;;;100.30;91.05;;;;;;;8.59;97.02;100569.20;1745608;82;25549;-47
2022/11/06 01:18:56;;;;;;;101.20;92.12;;;;;;;8.58;97.06;100570.84;1745550;81;25520;-46
2022/11/06 01:21:30;;;;;;;100.18;90.77;;;;;;;8.58;97.12;100570.84;1745605;82;25688;-47
2022/11/06 01:24:04;;;;;;;97.72;88.97;;;;;;;8.57;97.23;100576.80;1745611;82;27470;-49
2022/11/06 01:26:32;;;;;;;101.62;92.82;;;;;;;8.57;97.16;100576.00;1745526;81;25406;-49
2022/11/06 01:28:58;;;;;;;99.77;90.87;;;;;;;8.57;97.16;100586.23;1745535;82;25430;-49
2022/11/06 01:31:29;;;;;;;99.87;91.00;;;;;;;8.57;97.31;100579.48;1745541;82;25393;-49
2022/11/06 01:33:59;;;;;;;98.55;89.22;;;;;;;8.55;97.13;100580.88;1745606;82;25605;-49
2022/11/06 01:36:26;;;;;;;96.32;87.62;;;;;;;8.54;97.17;100584.66;1745677;82;27410;-49
2022/11/06 01:38:56;;;;;;;99.05;89.83;;;;;;;8.50;96.84;100587.68;1745445;81;25586;-49
2022/11/06 01:41:27;;;;;;;99.50;90.75;;;;;;;8.47;96.80;100587.70;1754516;81;25563;-49
2022/11/06 01:43:58;;;;;;;96.50;87.88;;;;;;;8.47;97.00;100585.55;1731572;82;26059;-49
2022/11/06 01:46:29;;;;;;;95.95;87.67;;;;;;;8.47;96.99;100579.61;1761938;81;25464;-48
2022/11/06 01:49:04;;;;;;;98.15;89.52;;;;;;;8.45;96.99;100575.05;1731652;82;27510;-47
2022/11/06 01:51:35;;;;;;;98.42;89.28;;;;;;;8.43;96.93;100580.46;1761802;81;25396;-48
2022/11/06 01:54:05;;;;;;;98.45;89.60;;;;;;;8.41;96.83;100584.23;1731645;82;25475;-48
2022/11/06 01:56:32;;;;;;;97.12;88.35;;;;;;;8.41;96.82;100589.63;1742260;82;28940;-48
2022/11/06 01:58:59;;;;;;;98.42;90.10;;;;;;;8.39;96.71;100592.34;1731579;82;25744;-50
2022/11/06 02:01:25;;;;;;;98.03;89.13;;;;;;;8.37;96.65;100590.48;1761864;81;27513;-48
2022/11/06 02:04:15;;;;;;;99.22;90.00;;;;;;;8.35;96.75;100588.06;1731544;82;25650;-49
2022/11/06 02:06:43;;;;;;;98.97;90.28;;;;;;;8.34;96.82;100589.17;1761876;81;25429;-48
2022/11/06 02:09:14;;;;;;;100.15;91.10;;;;;;;8.33;96.75;100595.64;1731587;82;25614;-47
2022/11/06 02:11:41;;;;;;;98.85;89.85;;;;;;;8.32;96.59;100601.31;1760311;81;25423;-48
2022/11/06 02:14:19;;;;;;;;;;;;;;;8.29;96.51;100596.48;1734190;82;27336;-48
2022/11/06 02:16:57;;;;;;;99.42;90.65;;;;;;;8.27;96.44;100591.38;1742589;82;25554;-47
2022/11/06 02:19:55;;;;;;;100.38;91.35;;;;;;;8.23;96.27;100593.05;1731428;82;25570;-48
2022/11/06 02:22:46;;;;;;;97.70;88.65;;;;;;;8.18;96.24;100593.91;1742589;82;25556;-48
2022/11/06 02:25:30;;;;;;;99.37;90.22;;;;;;;8.15;96.25;100592.33;1731628;82;25634;-48
2022/11/06 02:28:07;;;;;;;100.85;91.22;;;;;;;8.10;96.28;100589.69;1761976;81;27714;-48
2022/11/06 02:30:39;;;;;;;100.10;90.25;;;;;;;8.06;96.14;100588.11;1731565;82;27316;-48
2022/11/06 02:33:10;;;;;;;98.72;89.65;;;;;;;8.03;96.08;100596.75;1761556;81;25667;-49
2022/11/06 02:35:50;;;;;;;97.75;89.13;;;;;;;7.99;96.00;100594.38;1731238;82;25381;-49
2022/11/06 02:38:28;;;;;;;97.75;88.33;;;;;;;7.95;95.93;100592.80;1761880;81;25562;-48
2022/11/06 02:41:01;;;;;;;98.30;89.00;;;;;;;7.91;95.88;100599.82;1730410;82;27497;-47
2022/11/06 02:43:32;;;;;;;96.78;88.27;;;;;;;7.86;95.87;100602.01;1745453;82;25409;-48
2022/11/06 02:46:12;;;;;;;100.22;91.25;;;;;;;7.85;95.82;100598.28;1744156;82;25493;-48
2022/11/06 02:48:50;;;;;;;101.12;91.95;;;;;;;7.81;95.83;100599.36;1745495;82;25560;-48
2022/11/06 02:51:21;;;;;;;98.90;89.35;;;;;;;7.77;95.84;100602.92;1745494;82;25517;-49
2022/11/06 02:53:49;;;;;;;99.72;90.57;;;;;;;7.75;95.84;100605.89;1745517;82;27519;-47
2022/11/06 02:56:20;;;;;;;100.18;90.38;;;;;;;7.72;95.79;100609.70;1745422;82;25973;-49
2022/11/06 02:59:00;;;;;;;101.47;92.02;;;;;;;7.69;95.91;100612.95;1745490;81;25405;-48
2022/11/06 03:01:58;;;;;;;99.17;90.03;;;;;;;7.67;96.00;100625.34;1725904;83;25602;-48
2022/11/06 03:04:33;;;;;;;97.65;89.20;;;;;;;7.65;96.05;100622.12;1744069;82;25585;-48
2022/11/06 03:07:17;;;;;;;95.55;87.30;;;;;;;7.62;96.15;100626.72;1716148;82;27611;-48
2022/11/06 03:09:45;;;;;;;94.17;86.02;;;;;;;7.61;96.32;100633.18;1743359;82;25869;-50
2022/11/06 03:12:31;;;;;;;94.30;86.47;;;;;;;7.60;96.36;100631.59;1697563;83;25578;-48
2022/11/06 03:15:33;;;;;;;92.05;84.45;;;;;;;7.58;96.38;100629.73;1681341;85;25744;-46
2022/11/06 03:18:20;;;;;;;95.35;87.17;;;;;;;7.57;96.54;100626.21;1681428;85;25520;-46
2022/11/06 03:21:06;;;;;;;94.10;86.45;;;;;;;7.54;96.40;100632.70;1677043;85;27719;-50
2022/11/06 03:23:38;;;;;;;94.45;86.92;;;;;;;7.52;96.29;100637.56;1681384;85;25547;-47
2022/11/06 03:26:14;;;;;;;91.02;83.78;;;;;;;7.50;96.27;100637.05;1681285;85;25479;-49
2022/11/06 03:28:52;;;;;;;92.42;84.85;;;;;;;7.46;96.37;100630.88;1681392;85;25679;-48
2022/11/06 03:31:24;;;;;;;93.12;85.32;;;;;;;7.44;96.24;100634.39;1681439;85;25427;-48
2022/11/06 03:33:54;;;;;;;93.97;86.35;;;;;;;7.41;96.19;100645.70;1681048;85;27562;-47
2022/11/06 03:36:34;;;;;;;94.15;86.40;;;;;;;7.39;96.23;100637.12;1681397;85;25987;-47
2022/11/06 03:39:08;;;;;;;94.25;86.55;;;;;;;7.36;96.12;100643.05;1681547;85;25608;-47
2022/11/06 03:41:52;;;;;;;92.37;84.32;;;;;;;7.35;96.17;100647.36;1680867;84;25662;-48
2022/11/06 03:44:23;;;;;;;94.15;86.05;;;;;;;7.33;96.19;100641.45;1681504;85;25630;-47
2022/11/06 03:46:55;;;;;;;95.28;87.42;;;;;;;7.31;96.20;100648.46;1681417;85;27625;-47
2022/11/06 03:49:30;;;;;;;93.27;85.70;;;;;;;7.29;96.18;100654.12;1680753;85;26203;-47
2022/11/06 03:52:07;;;;;;;89.95;82.72;;;;;;;7.28;96.04;100651.70;1711659;82;25587;-47
2022/11/06 03:54:41;;;;;;;81.37;74.75;;;;;;;7.26;96.05;100647.14;1738332;82;25723;-48
2022/11/06 03:57:19;;;;;;;90.97;83.65;;;;;;;7.23;95.88;100647.14;1745483;82;25520;-48
2022/11/06 03:59:53;;;;;;;93.42;86.08;;;;;;;7.20;95.71;100646.38;1745424;81;27635;-47
2022/11/06 04:02:23;;;;;;;91.02;83.80;;;;;;;7.17;95.66;100649.62;1725919;83;25943;-47
2022/11/06 04:04:58;;;;;;;92.30;84.45;;;;;;;7.14;95.54;100652.06;1745473;82;25527;-47
2022/11/06 04:07:30;;;;;;;89.60;82.50;;;;;;;7.10;95.49;100650.47;1745434;82;25516;-48
2022/11/06 04:15:44;;;;;;;92.50;85.25;;;;;;;7.00;95.01;100655.87;1725996;83;27325;-47
2022/11/06 04:18:19;;;;;;;90.15;83.25;;;;;;;6.94;94.79;100661.02;1745279;82;25446;-47
2022/11/06 04:21:32;;;;;;;90.80;83.60;;;;;;;6.88;94.54;100658.91;1745441;81;26164;-48
2022/11/06 04:27:53;;;;;;;91.83;84.50;;;;;;;6.76;94.38;100666.45;1672987;85;27607;-47
2022/11/06 04:30:20;;;;;;;90.77;83.87;;;;;;;6.67;94.34;100664.32;1672766;85;25823;-47
2022/11/06 04:33:07;;;;;;;91.30;83.90;;;;;;;6.60;94.32;100663.81;1672829;85;25721;-47
2022/11/06 04:36:23;;;;;;;89.40;82.42;;;;;;;6.56;94.18;100665.45;1644007;87;25540;-46
2022/11/06 04:39:06;;;;;;;90.15;82.65;;;;;;;6.49;94.08;100660.35;1672969;85;25639;-48
2022/11/06 04:42:08;;;;;;;89.32;81.92;;;;;;;6.42;93.90;100654.98;1643961;86;27525;-48
2022/11/06 04:44:48;;;;;;;90.17;83.03;;;;;;;6.35;93.75;100662.80;1672668;85;25864;-48
2022/11/06 04:47:19;;;;;;;91.40;83.95;;;;;;;6.28;93.61;100658.77;1645615;87;25527;-47
2022/11/06 04:49:50;;;;;;;88.70;81.57;;;;;;;6.21;93.57;100661.73;1697354;84;27656;-47
2022/11/06 04:52:21;;;;;;;86.50;79.62;;;;;;;6.14;93.54;100656.63;1697460;84;25454;-47
2022/11/06 04:54:49;;;;;;;88.87;82.02;;;;;;;6.08;93.45;100656.39;1672975;85;27520;-47
2022/11/06 04:57:16;;;;;;;88.35;81.30;;;;;;;6.03;93.37;100649.67;1645508;87;25735;-47
2022/11/06 04:59:42;;;;;;;90.03;82.65;;;;;;;5.98;93.35;100659.08;1703134;82;25593;-47
2022/11/06 05:02:10;;;;;;;90.53;83.37;;;;;;;5.92;93.39;100655.53;1726767;81;26067;-47
2022/11/06 05:04:36;;;;;;;86.47;79.60;;;;;;;5.89;93.48;100649.90;1731714;82;25458;-48
2022/11/06 05:07:02;;;;;;;89.50;82.10;;;;;;;5.85;93.40;100648.30;1742710;82;27577;-47
2022/11/06 05:09:28;;;;;;;88.47;81.80;;;;;;;5.80;93.39;100649.63;1731546;82;25537;-47
2022/11/06 05:11:55;;;;;;;89.55;82.57;;;;;;;5.75;93.18;100644.27;1761876;81;25600;-47
2022/11/06 05:14:21;;;;;;;87.50;80.77;;;;;;;5.68;92.79;100643.19;1731607;82;25552;-47
2022/11/06 05:16:47;;;;;;;86.90;80.42;;;;;;;5.61;92.76;100650.70;1761927;81;25625;-48
2022/11/06 05:19:13;;;;;;;86.45;79.85;;;;;;;5.56;92.60;100657.40;1731629;82;27014;-47
2022/11/06 05:24:24;;;;;;;86.37;79.82;;;;;;;5.43;92.60;100668.92;1731656;82;25642;-47
2022/11/06 05:26:50;;;;;;;87.97;81.05;;;;;;;5.37;92.67;100674.53;1742595;82;25657;-46
2022/11/06 05:29:16;;;;;;;85.75;79.45;;;;;;;5.31;92.63;100679.09;1731638;82;25636;-47
2022/11/06 05:31:42;;;;;;;89.03;82.03;;;;;;;5.24;92.28;100680.68;1742632;82;28205;-46
2022/11/06 05:34:09;;;;;;;88.70;81.63;;;;;;;5.18;92.10;100684.41;1731551;82;25591;-47
2022/11/06 05:36:35;;;;;;;89.52;82.42;;;;;;;5.12;92.15;100681.96;1742641;82;25620;-49
2022/11/06 05:39:01;;;;;;;88.05;81.15;;;;;;;5.05;92.07;100676.30;1731588;82;25567;-47
2022/11/06 05:41:27;;;;;;;88.75;82.22;;;;;;;5.02;92.14;100686.74;1742422;82;25716;-48
2022/11/06 05:43:53;;;;;;;90.03;83.30;;;;;;;4.96;92.16;100687.81;1726172;83;27539;-49
2022/11/06 05:46:19;;;;;;;91.17;83.95;;;;;;;4.91;92.16;100685.11;1739623;82;25603;-46
2022/11/06 05:48:46;;;;;;;93.20;85.42;;;;;;;4.86;92.20;100689.91;1726161;82;25539;-47
2022/11/06 05:51:12;;;;;;;91.02;83.70;;;;;;;4.83;92.32;100689.08;1745495;82;25525;-46
2022/11/06 05:53:38;;;;;;;89.95;82.92;;;;;;;4.81;92.50;100693.89;1745527;82;25458;-47
2022/11/06 05:56:07;;;;;;;88.92;81.85;;;;;;;4.77;92.43;100695.50;1726141;83;29743;-47
2022/11/06 05:58:33;;;;;;;87.40;80.87;;;;;;;4.72;92.32;100698.95;1739886;82;25626;-47
2022/11/06 06:00:59;;;;;;;91.90;84.80;;;;;;;4.69;92.35;100704.81;1726084;83;25456;-47
2022/11/06 06:03:26;;;;;;;88.70;81.78;;;;;;;4.65;92.46;100711.23;1745530;81;25563;-47
2022/11/06 06:05:53;;;;;;;88.40;81.45;;;;;;;4.62;92.44;100706.92;1745566;82;25583;-47
2022/11/06 06:08:19;;;;;;;88.03;81.32;;;;;;;4.59;92.52;100714.94;1745527;82;27487;-47
2022/11/06 06:10:47;;;;;;;88.80;82.10;;;;;;;4.54;92.22;100712.77;1726118;83;27400;-47
2022/11/06 06:13:15;;;;;;;88.80;81.80;;;;;;;4.50;92.18;100717.84;1739685;82;25465;-47
2022/11/06 06:15:42;;;;;;;91.87;84.65;;;;;;;4.46;92.28;100721.56;1726101;83;25630;-47
2022/11/06 06:18:10;;;;;;;90.65;83.67;;;;;;;4.43;92.44;100714.03;1745580;82;25448;-46
2022/11/06 06:20:37;;;;;;;86.30;79.45;;;;;;;4.41;92.33;100724.72;1745501;82;28109;-47
2022/11/06 06:23:04;;;;;;;89.52;82.37;;;;;;;4.40;92.44;100730.61;1745455;82;25859;-47
2022/11/06 06:25:31;;;;;;;88.07;80.97;;;;;;;4.39;92.73;100734.88;1745522;82;25604;-46
2022/11/06 06:27:58;;;;;;;89.97;82.37;;;;;;;4.41;93.14;100748.31;1745489;82;25537;-47
2022/11/06 06:30:25;;;;;;;107.40;96.37;;;;;;;4.43;93.54;100745.38;1745535;82;25642;-48
2022/11/06 06:32:52;;;;;;;102.53;93.05;;;;;;;4.46;93.82;100737.63;1726104;83;27492;-48
2022/11/06 06:35:18;;;;;;;91.28;84.07;;;;;;;4.52;94.31;100741.69;1739594;82;25419;-49
2022/11/06 06:37:51;;;;;;;89.57;82.47;;;;;;;4.56;94.58;100740.09;1726117;82;25457;-47
2022/11/06 06:40:17;;;;;;;89.95;82.90;;;;;;;4.62;95.14;100741.22;1739169;82;25466;-49
2022/11/06 06:42:44;;;;;;;89.60;82.22;;;;;;;4.69;95.31;100751.72;1726081;83;25403;-48
2022/11/06 06:45:10;;;;;;;91.32;83.85;;;;;;;4.74;95.56;100749.06;1739699;82;27455;-50
2022/11/06 06:47:36;;;;;;;89.67;82.50;;;;;;;4.80;95.45;100753.41;1725991;83;25466;-48
2022/11/06 06:50:04;;;;;;;88.83;81.73;;;;;;;4.85;95.57;100750.75;1745492;82;25396;-48
2022/11/06 06:52:30;;;;;;;88.30;81.53;;;;;;;4.89;95.31;100751.04;1745490;82;25528;-48
2022/11/06 06:54:57;;;;;;;88.97;81.92;;;;;;;4.96;95.66;100760.20;1745495;82;25608;-48
2022/11/06 06:57:23;;;;;;;89.37;82.27;;;;;;;5.02;96.00;100761.81;1726049;83;27506;-47
2022/11/06 06:59:49;;;;;;;85.87;79.20;;;;;;;5.10;96.06;100762.67;1745413;82;25839;-47
2022/11/06 07:02:16;;;;;;;30.10;14.35;;;;;;;5.18;95.87;100770.77;1726075;83;25389;-48
2022/11/06 07:04:42;;;;;;;43.60;14.58;;;;;;;5.22;95.89;100768.63;1745562;82;25646;-49
2022/11/06 07:07:08;;;;;;;31.60;14.65;;;;;;;5.26;95.48;100770.27;1726233;83;32926;-48
2022/11/06 07:09:34;;;;;;;42.35;13.93;;;;;;;5.31;95.94;100769.47;1745493;81;27475;-48
2022/11/06 07:12:00;;;;;;;29.92;12.23;;;;;;;5.38;96.10;100770.03;1745460;82;25559;-47
2022/11/06 07:14:26;;;;;;;33.42;12.00;;;;;;;5.42;95.91;100773.81;1726146;82;25571;-48
2022/11/06 07:16:53;;;;;;;93.07;85.87;;;;;;;5.47;95.66;100771.70;1739600;82;26262;-48
2022/11/06 07:19:19;;;;;;;38.10;13.22;;;;;;;5.60;96.87;100775.20;1726127;83;25642;-48
2022/11/06 07:21:45;;;;;;;21.62;12.33;;;;;;;5.71;97.43;100774.72;1745425;82;29637;-50
2022/11/06 07:24:11;;;;;;;87.62;81.02;;;;;;;5.86;98.34;100780.67;1745379;82;25447;-48
2022/11/06 07:26:37;;;;;;;88.05;81.17;;;;;;;5.89;97.64;100772.89;1745450;82;25540;-46
2022/11/06 07:29:03;;;;;;;87.53;81.02;;;;;;;5.94;96.89;100782.81;1745497;81;26106;-48
2022/11/06 07:31:31;;;;;;;87.57;80.72;;;;;;;6.04;97.83;100782.06;1745542;82;25391;-48
2022/11/06 07:33:56;;;;;;;86.35;80.07;;;;;;;6.14;97.99;100777.50;1745481;82;28254;-49
2022/11/06 07:36:22;;;;;;;90.27;81.80;;;;;;;6.22;97.61;100778.06;1726054;83;25582;-49
2022/11/06 07:38:49;;;;;;;89.35;81.63;;;;;;;6.26;97.34;100771.88;1739645;82;25451;-49
2022/11/06 07:41:16;;;;;;;87.75;81.00;;;;;;;6.31;97.26;100769.19;1726015;83;26248;-48
2022/11/06 07:43:43;;;;;;;87.55;80.62;;;;;;;6.31;96.11;100777.24;1739637;82;25398;-48
2022/11/06 07:46:12;;;;;;;86.37;79.53;;;;;;;6.31;96.06;100771.88;1726125;82;28182;-46
2022/11/06 07:48:39;;;;;;;89.42;82.02;;;;;;;6.30;95.41;100765.42;1745553;82;25724;-48
2022/11/06 07:51:09;;;;;;;87.97;81.08;;;;;;;6.33;95.60;100768.92;1745488;82;25489;-47
2022/11/06 07:53:37;;;;;;;89.10;81.28;;;;;;;6.29;94.73;100762.48;1745514;82;27648;-49
2022/11/06 07:56:07;;;;;;;89.50;82.12;;;;;;;6.27;95.05;100768.66;1726220;83;25487;-48
2022/11/06 07:58:34;;;;;;;;;;;;;;;6.28;95.07;100770.27;1742319;82;28341;-49
2022/11/06 08:01:01;;;;;;;87.35;80.55;;;;;;;6.32;96.06;100777.52;1739703;82;26093;-48
2022/11/06 08:03:29;;;;;;;88.82;81.92;;;;;;;6.34;96.16;100775.91;1726181;82;25601;-47
2022/11/06 08:05:57;;;;;;;90.03;82.70;;;;;;;6.36;96.60;100778.59;1745512;81;26233;-48
2022/11/06 08:08:25;;;;;;;91.92;84.62;;;;;;;6.42;96.75;100777.24;1745713;82;25630;-48
2022/11/06 08:10:52;;;;;;;90.67;83.12;;;;;;;6.48;96.95;100776.98;1715610;82;29635;-48
2022/11/06 08:13:19;;;;;;;89.30;81.87;;;;;;;6.48;96.35;100785.59;1726039;83;25556;-48
2022/11/06 08:15:46;;;;;;;94.67;86.28;;;;;;;6.48;96.35;100785.03;1739678;82;25629;-48
2022/11/06 08:18:15;;;;;;;92.10;84.67;;;;;;;6.51;96.38;100787.73;1726174;83;25530;-48
2022/11/06 08:20:42;;;;;;;94.28;86.45;;;;;;;6.55;96.62;100791.48;1745728;82;25632;-48
2022/11/06 08:23:12;;;;;;;94.42;86.78;;;;;;;6.59;96.88;100795.27;1745728;82;29786;-49
2022/11/06 08:25:41;;;;;;;94.35;87.00;;;;;;;6.64;97.31;100800.64;1745684;81;25557;-48
2022/11/06 08:28:08;;;;;;;;;;;;;;;6.75;98.25;100800.08;1748328;82;25449;-49
2022/11/06 08:30:37;;;;;;;92.75;85.30;;;;;;;6.80;98.17;100806.80;1745733;81;26307;-49
2022/11/06 08:33:07;;;;;;;91.20;83.58;;;;;;;6.88;98.64;100804.91;1745753;82;25634;-49
2022/11/06 08:35:35;;;;;;;92.25;84.77;;;;;;;6.97;98.97;100802.47;1745596;82;27493;-49
2022/11/06 08:38:02;;;;;;;92.45;84.52;;;;;;;6.96;97.29;100810.27;1745534;82;25558;-49
2022/11/06 08:40:30;;;;;;;91.28;83.65;;;;;;;6.94;97.29;100803.01;1745582;82;25422;-47
2022/11/06 08:43:05;;;;;;;91.57;84.25;;;;;;;6.95;97.34;100791.70;1748277;81;25562;-48
2022/11/06 08:45:38;;;;;;;91.32;83.85;;;;;;;7.01;97.95;100794.66;1731673;82;25544;-47
2022/11/06 08:48:07;;;;;;;90.62;83.27;;;;;;;6.98;96.75;100791.99;1762016;81;27549;-49
2022/11/06 08:50:37;;;;;;;89.55;82.47;;;;;;;7.01;96.98;100792.77;1731767;82;25468;-50
2022/11/06 08:53:05;;;;;;;89.10;82.00;;;;;;;7.06;97.23;100797.34;1761835;81;25402;-50
2022/11/06 08:55:38;;;;;;;88.25;81.00;;;;;;;7.09;97.58;100796.80;1731437;82;25545;-48
2022/11/06 08:58:07;;;;;;;90.10;82.02;;;;;;;7.20;99.01;100798.91;1761932;81;25446;-47
2022/11/06 09:00:36;;;;;;;92.30;84.75;;;;;;;7.25;98.54;100801.06;1731769;82;27482;-50
2022/11/06 09:03:08;;;;;;;89.05;81.92;;;;;;;7.34;99.16;100801.83;1761924;81;25679;-48
2022/11/06 09:05:41;;;;;;;90.67;82.88;;;;;;;7.40;98.64;100798.84;1731648;82;25587;-49
2022/11/06 09:08:11;;;;;;;87.22;80.45;;;;;;;7.40;97.83;100793.45;1742674;82;25656;-49
2022/11/06 09:10:41;;;;;;;90.87;83.37;;;;;;;7.40;96.84;100794.01;1731690;82;25645;-48
2022/11/06 09:13:11;;;;;;;88.40;80.95;;;;;;;7.35;96.62;100792.13;1761951;81;27582;-48
2022/11/06 09:15:39;;;;;;;90.00;82.40;;;;;;;7.42;97.77;100793.19;1731555;82;25858;-48
2022/11/06 09:18:07;;;;;;;94.00;85.75;;;;;;;7.40;96.40;100792.66;1761902;81;25464;-48
2022/11/06 09:20:34;;;;;;;91.87;84.28;;;;;;;7.39;96.41;100794.56;1731594;82;25619;-50
2022/11/06 09:23:05;;;;;;;92.70;84.87;;;;;;;7.39;96.24;100787.83;1761888;81;25620;-50
2022/11/06 09:25:33;;;;;;;90.65;83.33;;;;;;;7.44;97.29;100794.53;1731654;82;27387;-47
2022/11/06 09:28:01;;;;;;;90.20;82.60;;;;;;;7.55;98.11;100797.19;1742591;82;25617;-48
2022/11/06 09:30:31;;;;;;;89.72;81.80;;;;;;;7.59;98.27;100796.34;1731576;82;25460;-48
2022/11/06 09:33:01;;;;;;;86.70;79.75;;;;;;;7.64;98.42;100793.65;1761897;81;25602;-48
2022/11/06 09:35:32;;;;;;;87.67;79.80;;;;;;;7.68;97.54;100799.28;1731722;82;25601;-48
2022/11/06 09:38:05;;;;;;;86.80;79.75;;;;;;;7.66;96.63;100795.52;1742700;82;28076;-48
2022/11/06 09:40:55;;;;;;;90.97;83.25;;;;;;;7.73;98.01;100801.95;1730367;82;25639;-59
2022/11/06 09:43:39;;;;;;;89.50;82.33;;;;;;;7.74;97.42;100808.92;1758497;81;25516;-60
2022/11/06 09:46:26;;;;;;;91.37;83.60;;;;;;;7.76;96.84;100805.96;1745584;82;25911;-58
2022/11/06 09:49:15;;;;;;;88.10;80.87;;;;;;;7.82;97.26;100804.31;1745554;82;25535;-60
2022/11/06 09:52:04;;;;;;;88.45;80.92;;;;;;;7.89;97.91;100809.39;1745705;82;27550;-61
2022/11/06 09:54:41;;;;;;;89.40;81.95;;;;;;;7.96;98.24;100810.44;1745740;82;32845;-60
2022/11/06 09:57:16;;;;;;;88.27;80.72;;;;;;;8.04;98.18;100813.89;1726180;83;25556;-60
2022/11/06 09:59:46;;;;;;;90.15;82.75;;;;;;;8.08;98.30;100814.14;1739670;82;25551;-60
2022/11/06 10:02:39;;;;;;;89.30;81.63;;;;;;;8.15;97.70;100814.08;1726218;83;25446;-59
2022/11/06 10:07:37;;;;;;;28.02;15.80;;;;;;;8.36;97.51;100818.80;1705368;82;25699;-58
2022/11/06 10:10:17;;;;;;;34.27;16.55;;;;;;;8.47;98.29;100819.55;1710369;83;25463;-59
2022/11/06 10:13:03;;;;;;;;;;;;;;;8.51;97.53;100821.13;1677750;85;27664;-60
2022/11/06 10:15:50;;;;;;;35.13;18.25;;;;;;;8.48;96.49;100819.82;1710666;83;25640;-60
2022/11/06 10:18:24;;;;;;;29.07;17.32;;;;;;;8.45;96.32;100820.93;1710386;83;27675;-60
2022/11/06 10:20:55;;;;;;;32.93;17.37;;;;;;;8.49;97.17;100818.72;1709485;83;25590;-60
2022/11/06 10:23:33;;;;;;;37.80;19.05;;;;;;;8.49;96.21;100817.92;1705193;83;25583;-60
2022/11/06 10:26:10;;;;;;;35.75;18.82;;;;;;;8.47;96.03;100817.41;1703786;84;25578;-59
2022/11/06 10:28:57;;;;;;;33.98;19.30;;;;;;;8.53;97.13;100818.43;1705206;84;25574;-59
2022/11/06 10:31:46;;;;;;;35.78;17.45;;;;;;;8.62;97.54;100816.48;1705194;84;27481;-58
2022/11/06 10:34:36;;;;;;;31.05;16.77;;;;;;;8.68;97.72;100813.43;1705119;84;25478;-61
2022/11/06 10:37:17;;;;;;;34.30;16.45;;;;;;;8.70;96.88;100815.84;1675719;84;25465;-60
2022/11/06 10:39:45;;;;;;;34.58;16.70;;;;;;;8.70;96.29;100818.02;1688667;85;25631;-58
2022/11/06 10:42:22;;;;;;;33.10;16.70;;;;;;;8.69;95.75;100815.05;1710745;83;25374;-60
2022/11/06 10:44:55;;;;;;;93.15;85.10;;;;;;;8.73;96.22;100815.28;1710521;83;27543;-59
2022/11/06 10:47:33;;;;;;;91.50;83.52;;;;;;;8.70;95.57;100807.23;1710566;83;25599;-59
2022/11/06 10:50:11;;;;;;;90.65;83.07;;;;;;;8.73;95.82;100805.30;1708815;83;25627;-60
2022/11/06 10:52:59;;;;;;;95.00;86.97;;;;;;;8.79;95.50;100811.47;1709187;83;25722;-58
2022/11/06 10:55:55;;;;;;;95.20;86.92;;;;;;;8.90;96.53;100808.91;1710648;83;25573;-59
2022/11/06 10:58:30;;;;;;;92.85;84.30;;;;;;;8.89;94.39;100803.83;1710644;83;27519;-60
2022/11/06 11:01:00;;;;;;;91.75;83.85;;;;;;;8.90;93.75;100800.02;1710551;83;25668;-58
2022/11/06 11:03:34;;;;;;;91.57;83.52;;;;;;;8.85;93.52;100800.08;1710583;83;25616;-61
2022/11/06 11:06:04;;;;;;;90.83;82.85;;;;;;;8.86;94.21;100796.30;1710894;83;25797;-58
2022/11/06 11:08:48;;;;;;;92.97;84.97;;;;;;;8.82;93.04;100787.98;1736719;82;25623;-61
2022/11/06 11:11:22;;;;;;;92.30;84.72;;;;;;;8.90;95.05;100791.38;1736681;82;27491;-59
2022/11/06 11:14:07;;;;;;;90.38;82.53;;;;;;;9.27;97.55;100787.77;1736506;82;25572;-56
2022/11/06 11:16:38;;;;;;;91.70;84.05;;;;;;;9.53;96.52;100784.20;1736806;82;25592;-57
2022/11/06 11:19:25;;;;;;;91.45;83.65;;;;;;;9.46;92.83;100784.55;1736699;82;25567;-57
2022/11/06 11:21:59;;;;;;;90.80;83.40;;;;;;;9.41;91.43;100779.77;1736718;82;25458;-60
2022/11/06 11:24:28;;;;;;;89.83;82.25;;;;;;;9.37;91.79;100776.84;1735235;80;27520;-58
2022/11/06 11:27:03;;;;;;;91.02;83.60;;;;;;;9.37;91.14;100772.80;1736680;82;27315;-59
2022/11/06 11:29:47;;;;;;;88.50;81.42;;;;;;;9.38;92.05;100769.54;1736639;82;25415;-57
2022/11/06 11:32:18;;;;;;;88.87;81.22;;;;;;;9.37;91.52;100767.39;1736675;82;26002;-56
2022/11/06 11:34:49;;;;;;;93.37;85.60;;;;;;;9.32;90.75;100763.41;1736706;82;25399;-56
2022/11/06 11:37:32;;;;;;;89.52;82.00;;;;;;;9.39;91.46;100761.70;1736697;82;27998;-58
2022/11/06 11:40:35;;;;;;;89.32;82.15;;;;;;;9.48;92.14;100758.08;1736529;82;25554;-57
2022/11/06 11:43:26;;;;;;;88.45;81.28;;;;;;;10.17;98.63;100760.33;1735926;82;25237;-57
2022/11/06 11:46:16;;;;;;;92.67;85.10;;;;;;;11.17;99.73;100754.53;1736435;82;25638;-56
2022/11/06 11:48:54;;;;;;;92.08;84.70;;;;;;;11.65;94.49;100755.97;1736528;82;25578;-57
2022/11/06 11:51:38;;;;;;;89.22;82.15;;;;;;;11.58;89.76;100753.68;1736664;82;27522;-58
2022/11/06 11:54:14;;;;;;;86.72;79.97;;;;;;;11.45;87.08;100751.79;1736619;82;25561;-57
2022/11/06 11:57:00;;;;;;;90.55;83.37;;;;;;;11.24;85.60;100754.66;1736713;82;25404;-56